sensor_id;sensor_type;location;lat;lon;timestamp;pressure;altitude;pressure_sealevel;temperature;humidity
15817;BME280;8009;50.070;8.232;2023-04-08T00:00:33;100403.66;;;8.67;80.33
15817;BME280;8009;50.070;8.232;2023-04-08T00:03:02;100404.44;;;8.98;78.62
15817;BME280;8009;50.070;8.232;2023-04-08T00:05:31;100405.09;;;8.87;79.08
15817;BME280;8009;50.070;8.232;2023-04-08T00:07:59;100400.97;;;8.96;78.99
15817;BME280;8009;50.070;8.232;2023-04-08T00:10:27;100396.94;;;8.74;80.07
15817;BME280;8009;50.070;8.232;2023-04-08T00:12:56;100413.84;;;8.76;80.22
15817;BME280;8009;50.070;8.232;2023-04-08T00:15:25;100408.84;;;8.70;79.63
15817;BME280;8009;50.070;8.232;2023-04-08T00:17:59;100400.28;;;9.07;79.07
15817;BME280;8009;50.070;8.232;2023-04-08T00:20:27;100403.94;;;8.91;78.78
15817;BME280;8009;50.070;8.232;2023-04-08T00:22:55;100403.94;;;8.77;79.95
15817;BME280;8009;50.070;8.232;2023-04-08T00:25:24;100395.66;;;8.80;80.00
15817;BME280;8009;50.070;8.232;2023-04-08T00:27:52;100403.75;;;8.80;79.42
15817;BME280;8009;50.070;8.232;2023-04-08T00:30:20;100406.94;;;9.01;79.13
15817;BME280;8009;50.070;8.232;2023-04-08T00:32:49;100411.25;;;8.75;80.69
15817;BME280;8009;50.070;8.232;2023-04-08T00:35:20;100413.25;;;8.57;81.10
15817;BME280;8009;50.070;8.232;2023-04-08T00:37:49;100410.94;;;8.51;80.88
15817;BME280;8009;50.070;8.232;2023-04-08T00:40:17;100408.78;;;8.42;81.80
15817;BME280;8009;50.070;8.232;2023-04-08T00:42:45;100405.84;;;8.61;80.89
15817;BME280;8009;50.070;8.232;2023-04-08T00:45:14;100404.94;;;8.46;81.38
15817;BME280;8009;50.070;8.232;2023-04-08T00:47:42;100409.97;;;8.52;80.87
15817;BME280;8009;50.070;8.232;2023-04-08T00:50:11;100406.41;;;8.66;80.24
15817;BME280;8009;50.070;8.232;2023-04-08T00:52:42;100410.28;;;8.76;80.03
15817;BME280;8009;50.070;8.232;2023-04-08T00:55:11;100413.47;;;8.38;80.98
15817;BME280;8009;50.070;8.232;2023-04-08T00:57:39;100417.19;;;8.51;80.40
15817;BME280;8009;50.070;8.232;2023-04-08T01:00:09;100416.22;;;8.52;80.71
15817;BME280;8009;50.070;8.232;2023-04-08T01:02:50;100417.50;;;8.75;80.08
15817;BME280;8009;50.070;8.232;2023-04-08T01:05:27;100419.16;;;8.78;79.49
15817;BME280;8009;50.070;8.232;2023-04-08T01:08:01;100421.63;;;8.67;80.08
15817;BME280;8009;50.070;8.232;2023-04-08T01:10:34;100415.38;;;8.81;79.60
15817;BME280;8009;50.070;8.232;2023-04-08T01:13:08;100412.03;;;9.06;79.44
15817;BME280;8009;50.070;8.232;2023-04-08T01:15:38;100411.81;;;8.80;80.07
15817;BME280;8009;50.070;8.232;2023-04-08T01:18:10;100416.94;;;8.70;80.05
15817;BME280;8009;50.070;8.232;2023-04-08T01:20:39;100418.03;;;8.52;81.06
15817;BME280;8009;50.070;8.232;2023-04-08T01:23:16;100424.59;;;8.62;80.01
15817;BME280;8009;50.070;8.232;2023-04-08T01:25:50;100417.50;;;8.75;79.51
15817;BME280;8009;50.070;8.232;2023-04-08T01:28:21;100415.19;;;8.55;80.42
15817;BME280;8009;50.070;8.232;2023-04-08T01:30:50;100423.31;;;8.53;81.38
15817;BME280;8009;50.070;8.232;2023-04-08T01:33:19;100423.28;;;8.39;81.25
15817;BME280;8009;50.070;8.232;2023-04-08T01:35:50;100413.88;;;8.46;81.61
15817;BME280;8009;50.070;8.232;2023-04-08T01:38:21;100419.03;;;8.79;80.18
15817;BME280;8009;50.070;8.232;2023-04-08T01:40:54;100409.69;;;8.57;80.98
15817;BME280;8009;50.070;8.232;2023-04-08T01:43:23;100411.88;;;8.50;80.67
15817;BME280;8009;50.070;8.232;2023-04-08T01:45:53;100415.38;;;8.36;81.33
15817;BME280;8009;50.070;8.232;2023-04-08T01:48:23;100411.00;;;8.49;80.78
15817;BME280;8009;50.070;8.232;2023-04-08T01:50:53;100408.44;;;8.62;80.39
15817;BME280;8009;50.070;8.232;2023-04-08T01:53:23;100402.69;;;8.68;80.37
15817;BME280;8009;50.070;8.232;2023-04-08T01:56:00;100415.84;;;8.73;80.08
15817;BME280;8009;50.070;8.232;2023-04-08T01:58:36;100411.28;;;8.45;80.97
15817;BME280;8009;50.070;8.232;2023-04-08T02:01:09;100411.25;;;8.75;79.99
15817;BME280;8009;50.070;8.232;2023-04-08T02:03:41;100407.84;;;8.57;80.37
15817;BME280;8009;50.070;8.232;2023-04-08T02:06:10;100417.94;;;8.53;81.14
15817;BME280;8009;50.070;8.232;2023-04-08T02:08:38;100412.03;;;8.91;79.05
15817;BME280;8009;50.070;8.232;2023-04-08T02:11:09;100413.56;;;8.67;80.22
15817;BME280;8009;50.070;8.232;2023-04-08T02:13:37;100416.00;;;8.41;80.97
15817;BME280;8009;50.070;8.232;2023-04-08T02:16:10;100410.47;;;8.59;80.87
15817;BME280;8009;50.070;8.232;2023-04-08T02:18:45;100411.16;;;8.76;79.45
15817;BME280;8009;50.070;8.232;2023-04-08T02:21:17;100413.41;;;8.54;80.81
15817;BME280;8009;50.070;8.232;2023-04-08T02:23:48;100416.22;;;8.52;80.49
15817;BME280;8009;50.070;8.232;2023-04-08T02:26:21;100413.91;;;8.61;80.48
15817;BME280;8009;50.070;8.232;2023-04-08T02:28:53;100415.81;;;8.44;80.45
15817;BME280;8009;50.070;8.232;2023-04-08T02:31:22;100417.28;;;8.34;81.04
15817;BME280;8009;50.070;8.232;2023-04-08T02:33:55;100418.81;;;8.54;80.37
15817;BME280;8009;50.070;8.232;2023-04-08T02:36:24;100420.81;;;8.50;80.58
15817;BME280;8009;50.070;8.232;2023-04-08T02:38:53;100414.75;;;8.47;80.52
15817;BME280;8009;50.070;8.232;2023-04-08T02:41:27;100417.41;;;8.77;79.33
15817;BME280;8009;50.070;8.232;2023-04-08T02:43:55;100423.09;;;8.87;79.43
15817;BME280;8009;50.070;8.232;2023-04-08T02:46:24;100415.56;;;8.77;78.60
15817;BME280;8009;50.070;8.232;2023-04-08T02:48:52;100422.56;;;8.51;80.74
15817;BME280;8009;50.070;8.232;2023-04-08T02:51:20;100422.47;;;8.53;80.43
15817;BME280;8009;50.070;8.232;2023-04-08T02:53:49;100422.56;;;8.66;79.83
15817;BME280;8009;50.070;8.232;2023-04-08T02:56:17;100430.25;;;8.43;80.52
15817;BME280;8009;50.070;8.232;2023-04-08T02:58:48;100430.31;;;8.42;80.70
15817;BME280;8009;50.070;8.232;2023-04-08T03:01:16;100435.34;;;8.48;80.63
15817;BME280;8009;50.070;8.232;2023-04-08T03:03:45;100434.09;;;8.53;79.04
15817;BME280;8009;50.070;8.232;2023-04-08T03:06:13;100435.56;;;8.13;80.63
15817;BME280;8009;50.070;8.232;2023-04-08T03:08:41;100435.19;;;8.19;80.41
15817;BME280;8009;50.070;8.232;2023-04-08T03:11:10;100433.34;;;8.36;79.47
15817;BME280;8009;50.070;8.232;2023-04-08T03:13:38;100433.34;;;8.36;79.95
15817;BME280;8009;50.070;8.232;2023-04-08T03:16:09;100433.00;;;8.42;79.94
15817;BME280;8009;50.070;8.232;2023-04-08T03:18:39;100434.03;;;8.39;79.43
15817;BME280;8009;50.070;8.232;2023-04-08T03:21:07;100430.91;;;8.31;79.67
15817;BME280;8009;50.070;8.232;2023-04-08T03:23:36;100436.38;;;8.45;78.84
15817;BME280;8009;50.070;8.232;2023-04-08T03:26:04;100437.84;;;8.35;79.29
15817;BME280;8009;50.070;8.232;2023-04-08T03:28:33;100432.50;;;8.19;79.28
15817;BME280;8009;50.070;8.232;2023-04-08T03:31:02;100441.19;;;8.09;80.12
15817;BME280;8009;50.070;8.232;2023-04-08T03:33:33;100448.44;;;7.92;80.84
15817;BME280;8009;50.070;8.232;2023-04-08T03:36:01;100450.06;;;8.11;80.40
15817;BME280;8009;50.070;8.232;2023-04-08T03:38:30;100441.16;;;7.94;80.53
15817;BME280;8009;50.070;8.232;2023-04-08T03:40:58;100441.66;;;8.01;80.26
15817;BME280;8009;50.070;8.232;2023-04-08T03:43:26;100451.28;;;8.05;80.13
15817;BME280;8009;50.070;8.232;2023-04-08T03:45:55;100448.53;;;7.91;81.12
15817;BME280;8009;50.070;8.232;2023-04-08T03:48:23;100451.56;;;7.85;80.81
15817;BME280;8009;50.070;8.232;2023-04-08T03:50:54;100457.09;;;7.81;81.16
15817;BME280;8009;50.070;8.232;2023-04-08T03:53:23;100449.03;;;7.81;80.52
15817;BME280;8009;50.070;8.232;2023-04-08T03:55:53;100464.22;;;7.51;82.10
15817;BME280;8009;50.070;8.232;2023-04-08T03:58:22;100461.09;;;7.58;81.26
15817;BME280;8009;50.070;8.232;2023-04-08T04:00:50;100463.63;;;7.62;80.88
15817;BME280;8009;50.070;8.232;2023-04-08T04:03:19;100456.69;;;7.73;80.18
15817;BME280;8009;50.070;8.232;2023-04-08T04:05:48;100464.34;;;7.32;82.53
15817;BME280;8009;50.070;8.232;2023-04-08T04:08:19;100466.31;;;7.62;80.80
15817;BME280;8009;50.070;8.232;2023-04-08T04:10:47;100466.91;;;7.67;80.40
15817;BME280;8009;50.070;8.232;2023-04-08T04:13:16;100466.41;;;7.44;82.04
15817;BME280;8009;50.070;8.232;2023-04-08T04:15:44;100466.19;;;7.47;81.44
15817;BME280;8009;50.070;8.232;2023-04-08T04:18:12;100463.44;;;7.65;80.62
15817;BME280;8009;50.070;8.232;2023-04-08T04:20:41;100465.88;;;7.53;81.25
15817;BME280;8009;50.070;8.232;2023-04-08T04:23:09;100461.50;;;7.35;81.63
15817;BME280;8009;50.070;8.232;2023-04-08T04:25:42;100466.13;;;7.33;81.43
15817;BME280;8009;50.070;8.232;2023-04-08T04:28:11;100468.13;;;7.45;80.95
15817;BME280;8009;50.070;8.232;2023-04-08T04:30:39;100467.03;;;7.32;81.45
15817;BME280;8009;50.070;8.232;2023-04-08T04:33:08;100474.25;;;7.47;80.62
15817;BME280;8009;50.070;8.232;2023-04-08T04:35:38;100473.69;;;7.25;81.16
15817;BME280;8009;50.070;8.232;2023-04-08T04:38:07;100473.13;;;7.36;81.38
15817;BME280;8009;50.070;8.232;2023-04-08T04:40:39;100482.13;;;7.35;81.05
15817;BME280;8009;50.070;8.232;2023-04-08T04:43:11;100479.19;;;7.39;80.52
15817;BME280;8009;50.070;8.232;2023-04-08T04:45:39;100479.47;;;7.66;80.00
15817;BME280;8009;50.070;8.232;2023-04-08T04:48:09;100483.66;;;7.56;79.43
15817;BME280;8009;50.070;8.232;2023-04-08T04:50:37;100483.88;;;7.51;79.97
15817;BME280;8009;50.070;8.232;2023-04-08T04:53:06;100479.16;;;7.56;79.84
15817;BME280;8009;50.070;8.232;2023-04-08T04:55:34;100476.94;;;7.47;80.99
15817;BME280;8009;50.070;8.232;2023-04-08T04:58:02;100482.59;;;7.58;79.44
15817;BME280;8009;50.070;8.232;2023-04-08T05:00:33;100484.22;;;7.29;80.75
15817;BME280;8009;50.070;8.232;2023-04-08T05:03:01;100478.94;;;7.44;79.64
15817;BME280;8009;50.070;8.232;2023-04-08T05:05:30;100496.69;;;7.30;80.60
15817;BME280;8009;50.070;8.232;2023-04-08T05:07:58;100482.03;;;7.36;80.32
15817;BME280;8009;50.070;8.232;2023-04-08T05:10:26;100495.19;;;7.25;80.76
15817;BME280;8009;50.070;8.232;2023-04-08T05:12:55;100491.88;;;7.20;80.06
15817;BME280;8009;50.070;8.232;2023-04-08T05:15:23;100493.41;;;7.25;79.94
15817;BME280;8009;50.070;8.232;2023-04-08T05:17:54;100494.88;;;7.47;80.11
15817;BME280;8009;50.070;8.232;2023-04-08T05:20:23;100501.19;;;7.30;80.89
15817;BME280;8009;50.070;8.232;2023-04-08T05:22:51;100500.09;;;7.50;79.33
15817;BME280;8009;50.070;8.232;2023-04-08T05:25:19;100513.25;;;7.39;80.06
15817;BME280;8009;50.070;8.232;2023-04-08T05:27:49;100507.34;;;7.32;79.64
15817;BME280;8009;50.070;8.232;2023-04-08T05:30:21;100508.31;;;7.31;79.48
15817;BME280;8009;50.070;8.232;2023-04-08T05:32:49;100505.81;;;7.44;79.22
15817;BME280;8009;50.070;8.232;2023-04-08T05:35:20;100504.09;;;7.58;78.36
15817;BME280;8009;50.070;8.232;2023-04-08T05:37:49;100511.91;;;7.14;80.36
15817;BME280;8009;50.070;8.232;2023-04-08T05:40:17;100509.09;;;7.33;79.16
15817;BME280;8009;50.070;8.232;2023-04-08T05:42:45;100517.09;;;7.50;78.69
15817;BME280;8009;50.070;8.232;2023-04-08T05:45:16;100522.59;;;7.31;79.40
15817;BME280;8009;50.070;8.232;2023-04-08T05:47:44;100514.25;;;7.53;79.20
15817;BME280;8009;50.070;8.232;2023-04-08T05:50:13;100519.66;;;7.36;78.95
15817;BME280;8009;50.070;8.232;2023-04-08T05:52:44;100513.13;;;7.24;78.73
15817;BME280;8009;50.070;8.232;2023-04-08T05:55:13;100518.50;;;7.24;79.47
15817;BME280;8009;50.070;8.232;2023-04-08T05:57:42;100525.81;;;7.38;78.14
15817;BME280;8009;50.070;8.232;2023-04-08T06:00:10;100530.50;;;7.35;78.95
15817;BME280;8009;50.070;8.232;2023-04-08T06:02:39;100528.78;;;7.33;78.46
15817;BME280;8009;50.070;8.232;2023-04-08T06:05:08;100533.91;;;7.21;78.61
15817;BME280;8009;50.070;8.232;2023-04-08T06:07:36;100537.03;;;7.46;78.47
15817;BME280;8009;50.070;8.232;2023-04-08T06:10:08;100535.94;;;7.66;78.11
15817;BME280;8009;50.070;8.232;2023-04-08T06:12:36;100537.25;;;7.26;79.07
15817;BME280;8009;50.070;8.232;2023-04-08T06:15:06;100537.81;;;7.48;77.19
15817;BME280;8009;50.070;8.232;2023-04-08T06:17:35;100546.03;;;7.45;77.91
15817;BME280;8009;50.070;8.232;2023-04-08T06:20:05;100538.13;;;7.42;77.90
15817;BME280;8009;50.070;8.232;2023-04-08T06:22:33;100559.59;;;7.60;77.43
15817;BME280;8009;50.070;8.232;2023-04-08T06:25:02;100559.75;;;7.23;78.40
15817;BME280;8009;50.070;8.232;2023-04-08T06:27:33;100556.84;;;7.44;77.52
15817;BME280;8009;50.070;8.232;2023-04-08T06:30:02;100558.53;;;7.62;76.94
15817;BME280;8009;50.070;8.232;2023-04-08T06:32:31;100556.22;;;7.56;77.13
15817;BME280;8009;50.070;8.232;2023-04-08T06:34:59;100566.66;;;7.45;77.48
15817;BME280;8009;50.070;8.232;2023-04-08T06:37:28;100566.38;;;7.33;77.60
15817;BME280;8009;50.070;8.232;2023-04-08T06:39:58;100564.84;;;7.45;77.92
15817;BME280;8009;50.070;8.232;2023-04-08T06:42:26;100565.69;;;7.63;76.86
15817;BME280;8009;50.070;8.232;2023-04-08T06:44:57;100570.47;;;7.41;78.16
15817;BME280;8009;50.070;8.232;2023-04-08T06:47:26;100568.19;;;7.66;77.53
15817;BME280;8009;50.070;8.232;2023-04-08T06:49:54;100571.81;;;7.65;77.18
15817;BME280;8009;50.070;8.232;2023-04-08T06:52:22;100574.00;;;7.74;77.32
15817;BME280;8009;50.070;8.232;2023-04-08T06:54:51;100568.41;;;7.79;76.72
15817;BME280;8009;50.070;8.232;2023-04-08T06:57:20;100576.34;;;7.65;77.50
15817;BME280;8009;50.070;8.232;2023-04-08T06:59:48;100567.44;;;7.96;76.10
15817;BME280;8009;50.070;8.232;2023-04-08T07:02:20;100575.38;;;7.66;77.06
15817;BME280;8009;50.070;8.232;2023-04-08T07:04:48;100572.09;;;7.76;77.28
15817;BME280;8009;50.070;8.232;2023-04-08T07:07:17;100576.91;;;7.87;75.65
15817;BME280;8009;50.070;8.232;2023-04-08T07:09:45;100583.53;;;7.64;76.99
15817;BME280;8009;50.070;8.232;2023-04-08T07:12:14;100584.53;;;7.95;76.15
15817;BME280;8009;50.070;8.232;2023-04-08T07:14:42;100582.81;;;8.10;75.49
15817;BME280;8009;50.070;8.232;2023-04-08T07:17:10;100587.13;;;7.96;75.46
15817;BME280;8009;50.070;8.232;2023-04-08T07:19:41;100587.84;;;8.16;74.86
15817;BME280;8009;50.070;8.232;2023-04-08T07:22:09;100581.84;;;7.95;75.54
15817;BME280;8009;50.070;8.232;2023-04-08T07:24:38;100587.34;;;8.09;74.77
15817;BME280;8009;50.070;8.232;2023-04-08T07:27:07;100584.38;;;8.14;74.91
15817;BME280;8009;50.070;8.232;2023-04-08T07:29:36;100584.22;;;8.17;74.37
15817;BME280;8009;50.070;8.232;2023-04-08T07:32:04;100584.38;;;8.61;73.33
15817;BME280;8009;50.070;8.232;2023-04-08T07:34:33;100584.91;;;8.52;73.34
15817;BME280;8009;50.070;8.232;2023-04-08T07:37:04;100603.50;;;8.41;74.16
15817;BME280;8009;50.070;8.232;2023-04-08T07:39:32;100602.84;;;8.83;72.02
15817;BME280;8009;50.070;8.232;2023-04-08T07:42:01;100601.13;;;9.12;71.74
15817;BME280;8009;50.070;8.232;2023-04-08T07:44:29;100604.59;;;8.68;72.39
15817;BME280;8009;50.070;8.232;2023-04-08T07:46:58;100603.28;;;8.75;71.75
15817;BME280;8009;50.070;8.232;2023-04-08T07:49:26;100604.72;;;8.97;72.04
15817;BME280;8009;50.070;8.232;2023-04-08T07:51:54;100610.69;;;8.56;72.87
15817;BME280;8009;50.070;8.232;2023-04-08T07:54:25;100595.91;;;8.79;73.01
15817;BME280;8009;50.070;8.232;2023-04-08T07:56:54;100605.28;;;8.72;73.38
15817;BME280;8009;50.070;8.232;2023-04-08T07:59:24;100603.09;;;8.78;73.26
15817;BME280;8009;50.070;8.232;2023-04-08T08:01:52;100605.47;;;9.29;71.43
15817;BME280;8009;50.070;8.232;2023-04-08T08:04:21;100598.16;;;9.31;71.24
15817;BME280;8009;50.070;8.232;2023-04-08T08:06:50;100606.91;;;9.35;71.20
15817;BME280;8009;50.070;8.232;2023-04-08T08:09:18;100610.13;;;9.11;72.28
15817;BME280;8009;50.070;8.232;2023-04-08T08:11:49;100613.72;;;9.26;71.32
15817;BME280;8009;50.070;8.232;2023-04-08T08:14:17;100615.13;;;9.47;71.37
15817;BME280;8009;50.070;8.232;2023-04-08T08:16:46;100622.91;;;9.38;71.82
15817;BME280;8009;50.070;8.232;2023-04-08T08:19:14;100620.31;;;9.06;72.60
15817;BME280;8009;50.070;8.232;2023-04-08T08:21:42;100625.44;;;9.11;72.56
15817;BME280;8009;50.070;8.232;2023-04-08T08:24:11;100621.06;;;9.24;72.52
15817;BME280;8009;50.070;8.232;2023-04-08T08:26:39;100628.84;;;9.28;70.96
15817;BME280;8009;50.070;8.232;2023-04-08T08:29:12;100640.31;;;9.02;72.73
15817;BME280;8009;50.070;8.232;2023-04-08T08:31:40;100631.81;;;9.54;70.89
15817;BME280;8009;50.070;8.232;2023-04-08T08:34:08;100637.34;;;9.37;71.18
15817;BME280;8009;50.070;8.232;2023-04-08T08:36:37;100635.91;;;9.01;71.59
15817;BME280;8009;50.070;8.232;2023-04-08T08:39:05;100642.09;;;9.17;70.99
15817;BME280;8009;50.070;8.232;2023-04-08T08:41:33;100643.47;;;8.94;71.55
15817;BME280;8009;50.070;8.232;2023-04-08T08:44:04;100644.78;;;9.47;70.18
15817;BME280;8009;50.070;8.232;2023-04-08T08:46:35;100653.13;;;9.73;69.90
15817;BME280;8009;50.070;8.232;2023-04-08T08:49:04;100653.94;;;9.59;71.73
15817;BME280;8009;50.070;8.232;2023-04-08T08:51:33;100652.91;;;9.76;69.42
15817;BME280;8009;50.070;8.232;2023-04-08T08:54:01;100657.00;;;9.39;70.58
15817;BME280;8009;50.070;8.232;2023-04-08T08:56:31;100661.25;;;9.43;70.05
15817;BME280;8009;50.070;8.232;2023-04-08T08:59:00;100656.66;;;9.73;69.97
15817;BME280;8009;50.070;8.232;2023-04-08T09:01:30;100663.22;;;9.69;68.91
15817;BME280;8009;50.070;8.232;2023-04-08T09:04:12;100662.50;;;9.51;69.94
15817;BME280;8009;50.070;8.232;2023-04-08T09:06:42;100662.41;;;9.23;70.42
15817;BME280;8009;50.070;8.232;2023-04-08T09:09:11;100660.00;;;9.48;69.78
15817;BME280;8009;50.070;8.232;2023-04-08T09:11:42;100658.63;;;9.41;68.81
15817;BME280;8009;50.070;8.232;2023-04-08T09:14:17;100663.91;;;9.28;70.09
15817;BME280;8009;50.070;8.232;2023-04-08T09:16:46;100660.28;;;9.14;68.77
15817;BME280;8009;50.070;8.232;2023-04-08T09:19:17;100670.38;;;9.10;69.03
15817;BME280;8009;50.070;8.232;2023-04-08T09:22:03;100672.88;;;9.13;69.74
15817;BME280;8009;50.070;8.232;2023-04-08T09:24:32;100677.41;;;9.43;68.61
15817;BME280;8009;50.070;8.232;2023-04-08T09:27:01;100687.28;;;9.28;68.96
15817;BME280;8009;50.070;8.232;2023-04-08T09:29:29;100687.41;;;9.41;68.10
15817;BME280;8009;50.070;8.232;2023-04-08T09:32:00;100684.13;;;9.36;68.36
15817;BME280;8009;50.070;8.232;2023-04-08T09:34:33;100677.50;;;9.41;68.04
15817;BME280;8009;50.070;8.232;2023-04-08T09:37:02;100693.72;;;9.25;68.96
15817;BME280;8009;50.070;8.232;2023-04-08T09:39:31;100693.69;;;8.95;69.70
15817;BME280;8009;50.070;8.232;2023-04-08T09:42:01;100689.59;;;9.34;68.06
15817;BME280;8009;50.070;8.232;2023-04-08T09:44:34;100693.84;;;9.08;69.65
15817;BME280;8009;50.070;8.232;2023-04-08T09:47:15;100689.06;;;9.13;68.99
15817;BME280;8009;50.070;8.232;2023-04-08T09:49:50;100694.38;;;8.99;68.91
15817;BME280;8009;50.070;8.232;2023-04-08T09:52:23;100683.94;;;9.09;68.32
15817;BME280;8009;50.070;8.232;2023-04-08T09:55:01;100688.00;;;9.16;68.81
15817;BME280;8009;50.070;8.232;2023-04-08T09:57:36;100693.13;;;9.20;68.25
15817;BME280;8009;50.070;8.232;2023-04-08T10:00:10;100699.34;;;9.37;68.93
15817;BME280;8009;50.070;8.232;2023-04-08T10:02:51;100689.41;;;9.37;69.20
15817;BME280;8009;50.070;8.232;2023-04-08T10:05:24;100693.06;;;9.66;68.70
15817;BME280;8009;50.070;8.232;2023-04-08T10:07:55;100688.44;;;9.38;67.96
15817;BME280;8009;50.070;8.232;2023-04-08T10:10:24;100690.84;;;9.28;68.47
15817;BME280;8009;50.070;8.232;2023-04-08T10:12:53;100691.34;;;9.35;68.21
15817;BME280;8009;50.070;8.232;2023-04-08T10:15:26;100690.22;;;9.53;66.59
15817;BME280;8009;50.070;8.232;2023-04-08T10:18:03;100692.88;;;9.84;66.20
15817;BME280;8009;50.070;8.232;2023-04-08T10:20:48;100688.47;;;9.97;66.93
15817;BME280;8009;50.070;8.232;2023-04-08T10:23:53;100696.88;;;9.92;65.52
15817;BME280;8009;50.070;8.232;2023-04-08T10:26:30;100692.03;;;9.97;64.94
15817;BME280;8009;50.070;8.232;2023-04-08T10:32:28;100681.22;;;9.83;64.60
15817;BME280;8009;50.070;8.232;2023-04-08T10:34:57;100680.31;;;10.27;63.14
15817;BME280;8009;50.070;8.232;2023-04-08T10:37:28;100674.66;;;10.59;62.36
15817;BME280;8009;50.070;8.232;2023-04-08T10:39:56;100679.22;;;10.30;63.51
15817;BME280;8009;50.070;8.232;2023-04-08T10:42:28;100680.78;;;10.19;63.77
15817;BME280;8009;50.070;8.232;2023-04-08T10:44:59;100677.63;;;10.27;63.36
15817;BME280;8009;50.070;8.232;2023-04-08T10:47:28;100678.56;;;10.40;61.19
15817;BME280;8009;50.070;8.232;2023-04-08T10:49:57;100673.13;;;10.55;59.96
15817;BME280;8009;50.070;8.232;2023-04-08T10:52:28;100673.44;;;10.50;58.45
15817;BME280;8009;50.070;8.232;2023-04-08T10:54:56;100666.19;;;10.51;57.36
15817;BME280;8009;50.070;8.232;2023-04-08T10:57:24;100671.50;;;10.52;59.91
15817;BME280;8009;50.070;8.232;2023-04-08T10:59:53;100665.53;;;10.47;58.63
15817;BME280;8009;50.070;8.232;2023-04-08T11:02:21;100673.00;;;10.70;57.37
15817;BME280;8009;50.070;8.232;2023-04-08T11:04:52;100668.38;;;10.72;56.04
15817;BME280;8009;50.070;8.232;2023-04-08T11:07:21;100666.13;;;10.79;57.00
15817;BME280;8009;50.070;8.232;2023-04-08T11:09:55;100673.13;;;10.69;57.07
15817;BME280;8009;50.070;8.232;2023-04-08T11:12:25;100668.09;;;10.63;56.20
15817;BME280;8009;50.070;8.232;2023-04-08T11:14:53;100672.66;;;10.34;57.56
15817;BME280;8009;50.070;8.232;2023-04-08T11:17:21;100671.25;;;10.28;56.00
15817;BME280;8009;50.070;8.232;2023-04-08T11:19:51;100674.44;;;10.35;57.92
15817;BME280;8009;50.070;8.232;2023-04-08T11:22:19;100674.19;;;10.52;54.63
15817;BME280;8009;50.070;8.232;2023-04-08T11:24:48;100675.84;;;10.40;56.95
15817;BME280;8009;50.070;8.232;2023-04-08T11:27:19;100674.69;;;10.44;55.24
15817;BME280;8009;50.070;8.232;2023-04-08T11:29:50;100671.09;;;10.58;54.78
15817;BME280;8009;50.070;8.232;2023-04-08T11:32:19;100667.59;;;10.70;54.63
15817;BME280;8009;50.070;8.232;2023-04-08T11:34:48;100667.13;;;10.64;56.15
15817;BME280;8009;50.070;8.232;2023-04-08T11:37:17;100662.88;;;11.01;54.54
15817;BME280;8009;50.070;8.232;2023-04-08T11:39:45;100662.97;;;11.39;53.81
15817;BME280;8009;50.070;8.232;2023-04-08T11:42:28;100665.34;;;11.44;53.67
15817;BME280;8009;50.070;8.232;2023-04-08T11:44:57;100656.41;;;11.56;55.14
15817;BME280;8009;50.070;8.232;2023-04-08T11:47:29;100645.63;;;11.29;56.02
15817;BME280;8009;50.070;8.232;2023-04-08T11:49:58;100658.66;;;11.50;54.32
15817;BME280;8009;50.070;8.232;2023-04-08T11:52:40;100660.84;;;11.57;52.74
15817;BME280;8009;50.070;8.232;2023-04-08T11:55:10;100657.81;;;11.62;55.86
15817;BME280;8009;50.070;8.232;2023-04-08T11:57:41;100648.75;;;12.14;52.15
15817;BME280;8009;50.070;8.232;2023-04-08T12:00:11;100650.25;;;12.67;51.19
15817;BME280;8009;50.070;8.232;2023-04-08T12:02:39;100639.13;;;12.83;53.07
15817;BME280;8009;50.070;8.232;2023-04-08T12:05:08;100647.19;;;12.72;51.82
15817;BME280;8009;50.070;8.232;2023-04-08T12:07:36;100644.34;;;12.74;50.88
15817;BME280;8009;50.070;8.232;2023-04-08T12:10:06;100633.41;;;12.75;51.80
15817;BME280;8009;50.070;8.232;2023-04-08T12:12:35;100632.25;;;12.66;52.13
15817;BME280;8009;50.070;8.232;2023-04-08T12:15:10;100630.28;;;12.68;52.50
15817;BME280;8009;50.070;8.232;2023-04-08T12:17:38;100630.19;;;12.94;52.39
15817;BME280;8009;50.070;8.232;2023-04-08T12:20:09;100624.34;;;12.87;52.58
15817;BME280;8009;50.070;8.232;2023-04-08T12:22:38;100628.78;;;12.88;52.06
15817;BME280;8009;50.070;8.232;2023-04-08T12:25:07;100624.22;;;12.41;53.81
15817;BME280;8009;50.070;8.232;2023-04-08T12:27:35;100632.50;;;12.51;53.30
15817;BME280;8009;50.070;8.232;2023-04-08T12:30:10;100629.63;;;12.28;53.67
15817;BME280;8009;50.070;8.232;2023-04-08T12:32:38;100632.19;;;11.93;56.26
15817;BME280;8009;50.070;8.232;2023-04-08T12:35:09;100633.16;;;12.05;55.19
15817;BME280;8009;50.070;8.232;2023-04-08T12:37:37;100631.22;;;12.07;53.88
15817;BME280;8009;50.070;8.232;2023-04-08T12:40:07;100625.59;;;12.47;55.82
15817;BME280;8009;50.070;8.232;2023-04-08T12:42:36;100625.13;;;12.29;56.00
15817;BME280;8009;50.070;8.232;2023-04-08T12:45:05;100624.22;;;12.41;55.45
15817;BME280;8009;50.070;8.232;2023-04-08T12:47:36;100627.56;;;12.32;55.25
15817;BME280;8009;50.070;8.232;2023-04-08T12:50:05;100625.50;;;12.48;55.80
15817;BME280;8009;50.070;8.232;2023-04-08T12:52:34;100620.31;;;12.45;56.25
15817;BME280;8009;50.070;8.232;2023-04-08T12:55:03;100627.66;;;12.06;56.69
15817;BME280;8009;50.070;8.232;2023-04-08T12:57:32;100618.28;;;12.23;55.22
15817;BME280;8009;50.070;8.232;2023-04-08T13:00:00;100622.00;;;12.09;56.87
15817;BME280;8009;50.070;8.232;2023-04-08T13:02:28;100622.97;;;12.21;54.89
15817;BME280;8009;50.070;8.232;2023-04-08T13:04:59;100620.41;;;12.43;56.60
15817;BME280;8009;50.070;8.232;2023-04-08T13:07:28;100622.50;;;12.27;56.19
15817;BME280;8009;50.070;8.232;2023-04-08T13:09:56;100627.44;;;11.97;56.17
15817;BME280;8009;50.070;8.232;2023-04-08T13:12:24;100628.03;;;12.26;55.61
15817;BME280;8009;50.070;8.232;2023-04-08T13:14:53;100624.56;;;12.24;56.11
15817;BME280;8009;50.070;8.232;2023-04-08T13:17:21;100629.44;;;12.31;57.02
15817;BME280;8009;50.070;8.232;2023-04-08T13:19:51;100631.84;;;12.23;56.53
15817;BME280;8009;50.070;8.232;2023-04-08T13:22:22;100638.19;;;12.35;56.93
15817;BME280;8009;50.070;8.232;2023-04-08T13:24:50;100637.63;;;12.42;55.33